Time;durP1;ratioP1;P1;durP2;ratioP2;P2;SDS_P1;SDS_P2;PMS_P1;PMS_P2;Temp;Humidity;BMP_temperature;BMP_pressure;BME280_temperature;BME280_humidity;BME280_pressure;Samples;Min_cycle;Max_cycle;Signal;HPM_P1;HPM_P2
2022/01/13 00:01:34;;;;;;;33.78;19.92;;;-0.50;14.20;;;;;;5057673;28;20433;-63
2022/01/13 00:04:03;;;;;;;38.38;22.42;;;-0.50;14.50;;;;;;5039156;28;20171;-63
2022/01/13 00:06:32;;;;;;;36.25;20.50;;;-0.50;14.30;;;;;;5037415;28;20080;-63
2022/01/13 00:09:00;;;;;;;33.47;19.52;;;-0.40;15.00;;;;;;5035768;28;20060;-63
2022/01/13 00:11:29;;;;;;;33.85;20.02;;;-0.40;14.70;;;;;;5053081;28;20127;-63
2022/01/13 00:14:21;;;;;;;33.05;18.73;;;-0.40;13.70;;;;;;5064636;28;20063;-63
2022/01/13 00:19:57;;;;;;;32.55;19.02;;;-0.40;13.70;;;;;;5063618;28;20049;-64
2022/01/13 00:22:45;;;;;;;31.98;19.50;;;-0.30;13.90;;;;;;5065813;28;20036;-64
2022/01/13 00:25:19;;;;;;;31.63;20.05;;;-0.30;14.20;;;;;;5061936;28;20415;-63
2022/01/13 00:27:54;;;;;;;36.40;20.20;;;-0.40;14.10;;;;;;5050343;28;20037;-64
2022/01/13 00:30:24;;;;;;;33.85;19.48;;;-0.50;15.00;;;;;;5051156;28;20056;-64
2022/01/13 00:32:52;;;;;;;32.90;19.58;;;-0.50;15.40;;;;;;5063806;28;20102;-64
2022/01/13 00:35:20;;;;;;;35.15;19.83;;;-0.40;15.40;;;;;;5063728;28;20499;-63
2022/01/13 00:37:49;;;;;;;32.67;19.15;;;-0.40;14.80;;;;;;5058521;28;20041;-63
2022/01/13 00:40:17;;;;;;;32.75;18.05;;;-0.40;14.80;;;;;;5062544;28;20048;-63
2022/01/13 00:42:45;;;;;;;31.30;19.15;;;-0.30;15.10;;;;;;5063035;28;20440;-63
2022/01/13 00:45:15;;;;;;;33.95;20.00;;;-0.30;15.00;;;;;;5063898;28;20132;-63
2022/01/13 00:47:44;;;;;;;36.67;20.65;;;-0.20;14.60;;;;;;5066619;28;20098;-64
2022/01/13 00:50:12;;;;;;;32.38;19.73;;;-0.20;14.50;;;;;;5055414;28;20040;-64
2022/01/13 00:52:40;;;;;;;34.78;20.40;;;-0.20;14.40;;;;;;5067667;28;20172;-64
2022/01/13 00:55:15;;;;;;;34.63;19.77;;;-0.30;13.70;;;;;;5063165;28;20758;-64
2022/01/13 00:57:43;;;;;;;30.02;19.73;;;-0.30;13.80;;;;;;5065556;28;20037;-63
2022/01/13 01:00:12;;;;;;;33.72;20.02;;;-0.20;14.10;;;;;;5065425;28;20052;-63
2022/01/13 01:02:40;;;;;;;37.08;20.13;;;-0.20;13.60;;;;;;5067798;28;20052;-63
2022/01/13 01:05:09;;;;;;;36.40;19.65;;;-0.20;13.50;;;;;;5066816;28;20076;-63
2022/01/13 01:07:38;;;;;;;33.97;19.42;;;-0.10;12.90;;;;;;5063756;28;20143;-63
2022/01/13 01:10:09;;;;;;;35.85;20.75;;;-0.10;12.90;;;;;;5067747;28;20044;-62
2022/01/13 01:12:38;;;;;;;32.95;19.30;;;-0.10;12.90;;;;;;5065114;28;20048;-64
2022/01/13 01:15:08;;;;;;;36.47;20.67;;;-0.10;11.90;;;;;;5062282;28;20060;-63
2022/01/13 01:17:43;;;;;;;34.17;19.33;;;-0.10;12.20;;;;;;5066535;28;20056;-63
2022/01/13 01:20:13;;;;;;;34.10;20.02;;;-0.10;12.40;;;;;;5067293;28;20094;-62
2022/01/13 01:22:56;;;;;;;39.08;20.65;;;-0.20;11.80;;;;;;5065592;28;20098;-62
2022/01/13 01:28:24;;;;;;;38.03;21.00;;;-0.10;12.50;;;;;;5045558;28;20064;-64
2022/01/13 01:30:54;;;;;;;40.42;21.77;;;0.00;11.60;;;;;;5067077;28;20051;-63
2022/01/13 01:33:22;;;;;;;35.65;21.30;;;-0.20;10.30;;;;;;5050680;28;20048;-62
2022/01/13 01:35:50;;;;;;;41.28;21.58;;;-0.10;11.20;;;;;;5064239;28;20495;-62
2022/01/13 01:38:21;;;;;;;34.72;20.48;;;-0.20;10.90;;;;;;5065996;28;20051;-63
2022/01/13 01:40:50;;;;;;;36.35;21.77;;;-0.20;10.90;;;;;;5047292;28;20128;-63
2022/01/13 01:43:18;;;;;;;39.40;21.35;;;-0.20;10.90;;;;;;5045844;28;20047;-63
2022/01/13 01:45:49;;;;;;;36.20;21.20;;;-0.20;11.50;;;;;;5043828;28;20698;-63
2022/01/13 01:48:20;;;;;;;36.42;22.30;;;-0.10;11.20;;;;;;5046145;28;20099;-63
2022/01/13 01:50:55;;;;;;;37.33;20.80;;;0.00;10.50;;;;;;5047334;28;20128;-63
2022/01/13 01:53:23;;;;;;;39.90;20.63;;;0.00;10.70;;;;;;5046379;28;20070;-64
2022/01/13 01:55:55;;;;;;;38.33;21.10;;;0.00;11.70;;;;;;5061664;28;20136;-62
2022/01/13 01:58:26;;;;;;;39.28;21.98;;;0.00;11.40;;;;;;5047214;28;20049;-62
2022/01/13 02:00:54;;;;;;;41.15;22.95;;;0.00;11.10;;;;;;5047751;28;20049;-64
2022/01/13 02:03:24;;;;;;;41.08;21.27;;;0.00;11.10;;;;;;5047916;28;20514;-64
2022/01/13 02:05:53;;;;;;;37.38;21.13;;;0.00;11.20;;;;;;5041544;28;20052;-63
2022/01/13 02:08:21;;;;;;;41.25;22.45;;;0.00;10.70;;;;;;5045948;28;20075;-64
2022/01/13 02:10:50;;;;;;;38.67;21.70;;;0.00;10.80;;;;;;5045885;28;20045;-63
2022/01/13 02:13:23;;;;;;;42.10;22.75;;;0.00;11.30;;;;;;5050409;28;20734;-63
2022/01/13 02:16:02;;;;;;;39.85;21.35;;;-0.10;11.90;;;;;;5049278;28;20538;-64
2022/01/13 02:18:32;;;;;;;36.45;20.83;;;-0.20;12.00;;;;;;5059722;28;20140;-63
2022/01/13 02:21:02;;;;;;;38.60;21.25;;;-0.20;12.50;;;;;;5064169;28;20049;-63
2022/01/13 02:23:33;;;;;;;39.15;22.48;;;-0.20;12.80;;;;;;5051416;28;20131;-64
2022/01/13 02:26:04;;;;;;;40.53;22.58;;;-0.20;12.80;;;;;;5047948;28;20056;-63
2022/01/13 02:28:32;;;;;;;44.08;22.38;;;-0.30;12.70;;;;;;5047535;28;20037;-63
2022/01/13 02:31:00;;;;;;;43.25;22.90;;;-0.30;12.90;;;;;;5046367;28;20076;-63
2022/01/13 02:33:31;;;;;;;37.67;20.02;;;-0.30;13.50;;;;;;5045094;28;20402;-63
2022/01/13 02:35:59;;;;;;;38.13;22.83;;;-0.30;14.10;;;;;;5049021;28;20047;-63
2022/01/13 02:38:28;;;;;;;39.42;22.67;;;-0.40;14.60;;;;;;5065536;28;20078;-63
2022/01/13 02:40:57;;;;;;;41.28;22.13;;;-0.30;15.00;;;;;;5048879;28;20069;-63
2022/01/13 02:43:26;;;;;;;40.25;22.90;;;-0.40;14.90;;;;;;5054898;28;20041;-64
2022/01/13 02:48:26;;;;;;;42.95;23.65;;;-0.30;14.60;;;;;;5024221;27;20372;-64
2022/01/13 02:50:55;;;;;;;41.65;22.70;;;-0.40;15.20;;;;;;5000672;28;20054;-64
2022/01/13 02:53:23;;;;;;;42.08;23.85;;;-0.40;15.10;;;;;;4985260;28;20133;-65
2022/01/13 02:55:54;;;;;;;43.78;24.73;;;-0.50;15.70;;;;;;4982552;28;20414;-63
2022/01/13 02:58:23;;;;;;;44.30;24.23;;;-0.50;15.60;;;;;;4995400;28;20136;-63
2022/01/13 03:00:51;;;;;;;44.72;25.02;;;-0.60;14.60;;;;;;5019027;28;20052;-63
2022/01/13 03:03:21;;;;;;;46.92;25.08;;;-0.60;14.40;;;;;;5001796;28;20060;-63
2022/01/13 03:05:49;;;;;;;43.50;24.88;;;-0.60;14.00;;;;;;5011533;28;20056;-64
2022/01/13 03:08:17;;;;;;;46.10;24.42;;;-0.70;14.30;;;;;;5021132;28;20081;-64
2022/01/13 03:10:45;;;;;;;49.45;26.00;;;-0.70;14.30;;;;;;5021828;28;20041;-64
2022/01/13 03:13:13;;;;;;;40.78;24.85;;;-0.70;14.20;;;;;;5022260;28;20129;-64
2022/01/13 03:15:41;;;;;;;46.92;25.70;;;-0.80;14.00;;;;;;5018179;28;20088;-64
2022/01/13 03:18:09;;;;;;;47.78;26.67;;;-0.80;14.00;;;;;;5021438;28;20100;-63
2022/01/13 03:20:39;;;;;;;46.00;26.02;;;-0.80;14.00;;;;;;5020366;28;20041;-63
2022/01/13 03:23:07;;;;;;;48.97;27.63;;;-0.90;14.20;;;;;;5022694;28;20150;-63
2022/01/13 03:25:35;;;;;;;49.45;26.92;;;-0.90;15.00;;;;;;5017289;28;20065;-64
2022/01/13 03:28:07;;;;;;;50.33;27.17;;;-1.00;15.40;;;;;;5020339;28;20049;-64
2022/01/13 03:30:35;;;;;;;51.67;26.73;;;-1.00;15.80;;;;;;5021474;28;20500;-65
2022/01/13 03:33:04;;;;;;;47.90;27.13;;;-1.10;16.00;;;;;;5022880;28;20119;-64
2022/01/13 03:35:32;;;;;;;49.75;26.85;;;-1.00;16.70;;;;;;5017110;28;20128;-63
2022/01/13 03:38:01;;;;;;;47.92;26.17;;;-1.10;16.60;;;;;;5019853;28;20502;-63
2022/01/13 03:40:29;;;;;;;53.55;28.27;;;-1.10;17.10;;;;;;5021347;28;20045;-64
2022/01/13 03:42:57;;;;;;;47.17;26.35;;;-1.10;16.00;;;;;;5021628;28;20045;-64
2022/01/13 03:45:25;;;;;;;50.47;27.02;;;-1.10;15.80;;;;;;5017452;28;20508;-64
2022/01/13 03:47:53;;;;;;;53.40;26.55;;;-1.10;15.80;;;;;;5018733;28;20195;-65
2022/01/13 03:50:22;;;;;;;45.90;26.33;;;-1.10;15.60;;;;;;5022033;28;20088;-63
2022/01/13 03:53:26;;;;;;;53.30;27.08;;;-1.10;15.40;;;;;;5021731;28;20128;-63
2022/01/13 03:57:02;;;;;;;47.42;26.95;;;-1.20;15.60;;;;;;4997420;28;20145;-64
2022/01/13 04:00:10;;;;;;;49.53;26.92;;;-1.20;15.70;;;;;;4970540;28;20088;-64
2022/01/13 04:02:38;;;;;;;49.97;27.05;;;-1.20;15.70;;;;;;4989686;28;20050;-62
2022/01/13 04:05:06;;;;;;;45.33;26.90;;;-1.10;15.70;;;;;;5006774;28;20112;-63
2022/01/13 04:07:34;;;;;;;51.78;27.45;;;-1.20;15.70;;;;;;5005322;28;20042;-64
2022/01/13 04:10:29;;;;;;;52.22;26.77;;;-1.10;15.80;;;;;;5007199;28;20070;-63
2022/01/13 04:12:59;;;;;;;52.05;27.73;;;-1.10;15.70;;;;;;5002368;28;20582;-63
2022/01/13 04:15:30;;;;;;;44.80;25.55;;;-1.00;16.30;;;;;;5003940;28;20122;-64
2022/01/13 04:17:58;;;;;;;48.13;26.75;;;-1.00;15.60;;;;;;5006654;28;20125;-63
2022/01/13 04:20:26;;;;;;;42.42;24.58;;;-1.00;15.30;;;;;;5007702;28;20528;-64
2022/01/13 04:22:54;;;;;;;47.25;25.33;;;-1.00;15.70;;;;;;5006002;28;20083;-63
2022/01/13 04:25:23;;;;;;;48.88;25.83;;;-1.10;15.70;;;;;;5000751;28;20165;-65
2022/01/13 04:28:00;;;;;;;48.55;25.80;;;-1.00;15.90;;;;;;5006562;28;20061;-63
2022/01/13 04:30:45;;;;;;;47.85;26.27;;;-1.00;15.80;;;;;;5005759;28;20129;-63
2022/01/13 04:33:13;;;;;;;46.58;25.25;;;-0.90;16.40;;;;;;5008645;28;20050;-63
2022/01/13 04:35:42;;;;;;;50.88;26.90;;;-1.00;15.80;;;;;;5000966;28;20876;-63
2022/01/13 04:38:10;;;;;;;45.55;25.45;;;-0.90;15.80;;;;;;5006133;28;20052;-63
2022/01/13 04:40:44;;;;;;;45.08;24.90;;;-0.90;15.60;;;;;;5006874;28;20090;-64
2022/01/13 04:43:13;;;;;;;38.78;24.35;;;-0.90;15.60;;;;;;5006224;28;20128;-64
2022/01/13 04:45:42;;;;;;;42.75;24.70;;;-0.90;15.40;;;;;;5004435;28;20100;-63
2022/01/13 04:48:10;;;;;;;44.58;24.02;;;-0.80;15.80;;;;;;5005927;28;20042;-64
2022/01/13 04:50:38;;;;;;;42.08;24.35;;;-0.80;15.70;;;;;;5006109;28;20493;-63
2022/01/13 04:53:07;;;;;;;45.55;25.48;;;-0.80;15.50;;;;;;5008147;28;20080;-63
2022/01/13 04:55:36;;;;;;;44.22;25.35;;;-0.70;15.10;;;;;;5004725;28;20057;-63
2022/01/13 04:58:06;;;;;;;45.25;23.10;;;-0.70;15.20;;;;;;5005598;28;20128;-63
2022/01/13 05:00:35;;;;;;;44.20;24.48;;;-0.60;14.90;;;;;;5005996;28;20129;-64
2022/01/13 05:03:04;;;;;;;44.50;23.98;;;-0.60;14.60;;;;;;5007986;28;20042;-63
2022/01/13 05:05:32;;;;;;;42.28;24.42;;;-0.60;14.30;;;;;;5003189;28;20054;-64
2022/01/13 05:08:00;;;;;;;43.55;24.05;;;-0.60;14.00;;;;;;5004922;28;20116;-64
2022/01/13 05:10:28;;;;;;;41.35;22.85;;;-0.60;14.30;;;;;;5005778;28;20045;-65
2022/01/13 05:12:57;;;;;;;38.53;23.23;;;-0.60;13.70;;;;;;5006731;28;20038;-63
2022/01/13 05:15:27;;;;;;;42.95;23.63;;;-0.60;13.60;;;;;;5004414;28;20048;-63
2022/01/13 05:18:13;;;;;;;38.20;23.20;;;-0.60;13.60;;;;;;5003342;28;20050;-64
2022/01/13 05:20:48;;;;;;;41.55;23.70;;;-0.50;13.80;;;;;;5005052;28;20145;-64
2022/01/13 05:23:17;;;;;;;39.78;23.77;;;-0.50;14.00;;;;;;5007721;28;20512;-65
2022/01/13 05:25:45;;;;;;;43.97;24.10;;;-0.50;13.70;;;;;;5003086;28;20502;-64
2022/01/13 05:28:14;;;;;;;37.85;23.00;;;-0.60;13.70;;;;;;5006144;28;20494;-63
2022/01/13 05:30:43;;;;;;;39.97;23.33;;;-0.50;14.50;;;;;;5006076;28;20513;-64
2022/01/13 05:33:11;;;;;;;37.95;22.65;;;-0.60;14.10;;;;;;5006768;28;20038;-63
2022/01/13 05:35:40;;;;;;;42.45;24.05;;;-0.50;14.00;;;;;;5003728;28;20137;-63
2022/01/13 05:38:10;;;;;;;43.38;23.17;;;-0.50;14.10;;;;;;5006198;28;20143;-63
2022/01/13 05:40:39;;;;;;;42.17;24.02;;;-0.50;13.70;;;;;;5004902;28;20042;-64
2022/01/13 05:43:07;;;;;;;47.30;26.40;;;-0.50;13.70;;;;;;5007815;28;20060;-64
2022/01/13 05:45:39;;;;;;;37.33;21.35;;;-0.40;13.00;;;;;;5001160;28;20049;-62
2022/01/13 05:48:08;;;;;;;45.85;23.38;;;-0.40;12.70;;;;;;5004563;28;20056;-64
2022/01/13 05:50:36;;;;;;;43.00;24.17;;;-0.40;12.70;;;;;;5003993;28;20038;-64
2022/01/13 05:53:04;;;;;;;40.75;23.35;;;-0.50;12.60;;;;;;5006729;28;20056;-64
2022/01/13 05:55:34;;;;;;;42.13;23.65;;;-0.40;12.70;;;;;;5003007;28;20076;-63
2022/01/13 05:58:03;;;;;;;45.33;24.85;;;-0.40;12.70;;;;;;5005553;28;20502;-64
2022/01/13 06:00:31;;;;;;;40.17;22.75;;;-0.40;12.70;;;;;;5003041;28;20045;-64
2022/01/13 06:02:59;;;;;;;47.40;23.23;;;-0.30;12.70;;;;;;5006970;28;20065;-64
2022/01/13 06:05:27;;;;;;;41.20;23.95;;;-0.30;12.80;;;;;;5004212;28;20054;-63
2022/01/13 06:07:55;;;;;;;43.60;23.15;;;-0.30;12.80;;;;;;4981658;28;20153;-63
2022/01/13 06:10:23;;;;;;;40.45;22.35;;;-0.30;12.70;;;;;;4981774;28;20529;-64
2022/01/13 06:12:54;;;;;;;39.70;22.92;;;-0.30;12.80;;;;;;4983624;28;20045;-63
2022/01/13 06:15:24;;;;;;;37.30;22.48;;;-0.20;13.40;;;;;;4981042;28;20165;-62
2022/01/13 06:17:55;;;;;;;42.90;24.00;;;-0.30;12.80;;;;;;4976100;28;20066;-63
2022/01/13 06:20:24;;;;;;;38.85;23.45;;;-0.30;13.10;;;;;;4982472;28;20049;-63
2022/01/13 06:22:53;;;;;;;42.83;23.95;;;-0.20;13.60;;;;;;5005751;28;20176;-63
2022/01/13 06:25:21;;;;;;;40.38;23.38;;;-0.30;12.80;;;;;;5003389;28;20045;-63
2022/01/13 06:27:49;;;;;;;40.50;23.30;;;-0.30;13.40;;;;;;5002365;28;20049;-63
2022/01/13 06:30:39;;;;;;;42.20;23.52;;;-0.30;13.50;;;;;;5004800;28;20489;-63
2022/01/13 06:33:07;;;;;;;45.92;25.55;;;-0.20;14.00;;;;;;5005792;28;20038;-62
2022/01/13 06:35:36;;;;;;;40.47;22.58;;;-0.20;13.60;;;;;;5002366;28;20064;-64
2022/01/13 06:38:04;;;;;;;41.85;23.83;;;-0.20;13.60;;;;;;5005453;28;20104;-63
2022/01/13 06:40:33;;;;;;;43.45;23.38;;;-0.20;14.00;;;;;;5003877;28;20042;-64
2022/01/13 06:43:01;;;;;;;43.75;23.38;;;0.00;12.90;;;;;;5003274;28;20121;-64
2022/01/13 06:45:29;;;;;;;44.08;24.30;;;0.00;13.00;;;;;;5003577;28;20064;-62
2022/01/13 06:47:58;;;;;;;38.42;22.67;;;0.00;13.00;;;;;;5001725;28;20053;-63
2022/01/13 06:50:26;;;;;;;40.47;23.45;;;-0.10;12.90;;;;;;4999305;28;20124;-64
2022/01/13 06:52:54;;;;;;;42.08;24.20;;;-0.10;12.90;;;;;;5006114;28;20707;-63
2022/01/13 06:55:22;;;;;;;40.70;22.80;;;0.00;12.30;;;;;;5003242;28;20100;-63
2022/01/13 06:57:50;;;;;;;41.45;23.10;;;0.00;11.70;;;;;;5003273;28;20077;-63
2022/01/13 07:00:18;;;;;;;39.55;22.30;;;-0.10;11.80;;;;;;5004254;28;20405;-63
2022/01/13 07:02:46;;;;;;;41.78;23.38;;;0.00;12.60;;;;;;5004077;28;20038;-64
2022/01/13 07:05:17;;;;;;;88.55;41.38;;;0.10;11.60;;;;;;5002669;28;20042;-62
2022/01/13 07:07:45;;;;;;;92.45;40.42;;;0.10;11.30;;;;;;5004795;28;20050;-63
2022/01/13 07:10:14;;;;;;;81.93;38.03;;;0.10;10.50;;;;;;5004164;28;20096;-63
2022/01/13 07:12:43;;;;;;;42.22;23.25;;;0.00;10.30;;;;;;5003598;28;20117;-64
2022/01/13 07:15:12;;;;;;;37.60;21.85;;;0.00;10.60;;;;;;5002520;28;20436;-62
2022/01/13 07:17:41;;;;;;;41.80;23.13;;;0.10;10.60;;;;;;5000469;28;20137;-63
2022/01/13 07:20:10;;;;;;;43.30;23.60;;;0.10;10.60;;;;;;5004999;28;20049;-64
2022/01/13 07:22:40;;;;;;;42.28;23.30;;;0.10;10.30;;;;;;5005227;28;20041;-65
2022/01/13 07:25:10;;;;;;;40.78;23.08;;;0.10;10.60;;;;;;5002797;28;20843;-64
2022/01/13 07:27:43;;;;;;;37.03;21.35;;;0.20;10.20;;;;;;5002510;28;20124;-65
2022/01/13 07:30:14;;;;;;;37.55;22.25;;;0.30;9.70;;;;;;5003799;28;20061;-63
2022/01/13 07:32:42;;;;;;;42.95;21.55;;;0.30;9.50;;;;;;5005620;28;20572;-63
2022/01/13 07:35:12;;;;;;;38.50;22.40;;;0.30;8.90;;;;;;5006228;28;20041;-63
2022/01/13 07:37:43;;;;;;;36.75;20.65;;;0.20;9.50;;;;;;5004919;28;20502;-64
2022/01/13 07:40:15;;;;;;;42.58;20.83;;;0.20;9.50;;;;;;5007969;28;20125;-63
2022/01/13 07:42:43;;;;;;;39.58;21.38;;;0.20;9.50;;;;;;5005497;28;20077;-63
2022/01/13 07:45:14;;;;;;;42.40;20.80;;;0.30;8.80;;;;;;5002305;28;20046;-63
2022/01/13 07:47:43;;;;;;;40.53;22.50;;;0.20;8.30;;;;;;5007405;28;20108;-64
2022/01/13 07:50:13;;;;;;;39.20;22.50;;;0.30;8.60;;;;;;5005942;28;20046;-64
2022/01/13 07:52:43;;;;;;;39.72;21.98;;;0.30;7.90;;;;;;5018555;28;20060;-64
2022/01/13 07:55:12;;;;;;;40.78;21.40;;;0.30;8.60;;;;;;5005773;28;20070;-63
2022/01/13 07:57:40;;;;;;;34.90;20.92;;;0.20;7.50;;;;;;5006067;28;20056;-63
2022/01/13 08:00:11;;;;;;;39.85;21.65;;;0.30;7.70;;;;;;5006671;28;20497;-63
2022/01/13 08:02:40;;;;;;;36.10;20.90;;;0.30;8.10;;;;;;5009343;28;20085;-63
2022/01/13 08:05:09;;;;;;;37.90;21.92;;;0.30;8.00;;;;;;5004411;28;20049;-63
2022/01/13 08:07:44;;;;;;;37.17;22.08;;;0.20;8.90;;;;;;5003185;28;20125;-64
2022/01/13 08:10:12;;;;;;;36.63;21.05;;;0.30;7.90;;;;;;5007952;28;20107;-63
2022/01/13 08:12:41;;;;;;;37.33;21.73;;;0.30;7.90;;;;;;5007115;28;20076;-63
2022/01/13 08:15:13;;;;;;;34.95;21.13;;;0.20;8.00;;;;;;5004979;28;20065;-62
2022/01/13 08:20:37;;;;;;;39.95;21.50;;;0.30;8.60;;;;;;5001749;28;20104;-64
2022/01/13 08:23:09;;;;;;;36.92;21.33;;;0.40;8.80;;;;;;5007231;28;20066;-63
2022/01/13 08:25:37;;;;;;;35.25;21.52;;;0.40;8.20;;;;;;5004927;28;20544;-64
2022/01/13 08:28:05;;;;;;;42.92;21.73;;;0.40;7.40;;;;;;5003989;28;20072;-63
2022/01/13 08:30:42;;;;;;;35.10;20.70;;;0.50;8.00;;;;;;5006786;28;20065;-64
2022/01/13 08:33:10;;;;;;;40.72;21.38;;;0.40;7.50;;;;;;5008584;28;20054;-64
2022/01/13 08:35:43;;;;;;;39.72;21.48;;;0.30;8.50;;;;;;5004601;28;20506;-64
2022/01/13 08:38:16;;;;;;;39.10;22.15;;;0.40;8.30;;;;;;5006754;28;20050;-63
2022/01/13 08:40:53;;;;;;;44.28;21.90;;;0.40;7.60;;;;;;5006132;28;20132;-62
2022/01/13 08:43:22;;;;;;;39.58;22.55;;;0.40;7.40;;;;;;5006350;28;20038;-64
2022/01/13 08:45:52;;;;;;;38.75;23.08;;;0.60;7.00;;;;;;5005374;28;20144;-63
2022/01/13 08:48:21;;;;;;;41.75;21.98;;;0.50;7.30;;;;;;5006086;28;20529;-63
2022/01/13 08:50:50;;;;;;;35.92;22.00;;;0.60;6.20;;;;;;5006124;28;20034;-63
2022/01/13 08:53:39;;;;;;;37.00;22.98;;;0.60;6.20;;;;;;5007398;28;20038;-64
2022/01/13 08:56:07;;;;;;;38.80;21.52;;;0.70;6.20;;;;;;5004135;28;20359;-64
2022/01/13 08:58:37;;;;;;;81.15;40.63;;;0.70;6.30;;;;;;4988248;28;20049;-63
2022/01/13 09:01:07;;;;;;;41.95;23.40;;;0.80;6.30;;;;;;5006211;28;20121;-63
2022/01/13 09:03:35;;;;;;;45.05;23.90;;;0.70;6.30;;;;;;5006134;28;20068;-64
2022/01/13 09:06:04;;;;;;;42.35;24.80;;;0.70;6.20;;;;;;5003845;28;20054;-63
2022/01/13 09:08:35;;;;;;;44.70;24.25;;;0.80;6.30;;;;;;4998775;28;20046;-64
2022/01/13 09:11:05;;;;;;;39.92;22.63;;;0.90;6.40;;;;;;5006064;28;20069;-64
2022/01/13 09:13:37;;;;;;;37.13;20.98;;;0.90;6.40;;;;;;5007992;28;20042;-64
2022/01/13 09:16:14;;;;;;;37.90;21.13;;;0.80;6.30;;;;;;5003169;28;20052;-64
2022/01/13 09:19:07;;;;;;;38.95;21.98;;;1.00;6.40;;;;;;5001981;28;20053;-64
2022/01/13 09:21:38;;;;;;;34.70;20.25;;;1.00;5.90;;;;;;5004108;28;20058;-63
2022/01/13 09:24:07;;;;;;;34.67;19.85;;;1.00;6.40;;;;;;5005446;28;20050;-62
2022/01/13 09:26:37;;;;;;;39.75;21.17;;;1.00;6.40;;;;;;5002475;28;20048;-63
2022/01/13 09:29:06;;;;;;;31.80;17.75;;;1.10;6.30;;;;;;5007793;28;20104;-63
2022/01/13 09:31:35;;;;;;;32.80;17.35;;;1.00;5.90;;;;;;5006271;28;20052;-63
2022/01/13 09:34:04;;;;;;;31.00;16.65;;;1.00;6.40;;;;;;5005319;28;20116;-64
2022/01/13 09:36:33;;;;;;;28.40;15.63;;;1.20;6.80;;;;;;5004130;28;20041;-64
2022/01/13 09:39:02;;;;;;;29.70;16.50;;;1.20;6.50;;;;;;5004296;28;20100;-64
2022/01/13 09:41:33;;;;;;;24.85;15.52;;;1.40;6.70;;;;;;5005796;28;20049;-64
2022/01/13 09:44:05;;;;;;;27.67;16.50;;;1.40;6.70;;;;;;5007081;28;20156;-64
2022/01/13 09:46:34;;;;;;;25.38;14.93;;;1.40;6.70;;;;;;5003327;28;20556;-63
2022/01/13 09:49:04;;;;;;;23.33;13.27;;;1.30;6.80;;;;;;5004466;28;20139;-63
2022/01/13 09:51:34;;;;;;;24.88;14.45;;;1.40;7.80;;;;;;5004980;28;20535;-63
2022/01/13 09:54:04;;;;;;;20.08;12.40;;;1.50;8.60;;;;;;5005298;28;20121;-64
2022/01/13 09:56:34;;;;;;;23.83;12.25;;;1.40;8.40;;;;;;5003831;28;20045;-63
2022/01/13 09:59:05;;;;;;;16.70;10.15;;;1.60;8.50;;;;;;5003943;28;20489;-64
2022/01/13 10:01:36;;;;;;;11.50;7.22;;;1.70;8.30;;;;;;5004670;28;20121;-62
2022/01/13 10:04:05;;;;;;;17.30;8.68;;;1.60;9.50;;;;;;5005727;28;20056;-63
2022/01/13 10:06:42;;;;;;;19.08;10.32;;;1.70;11.00;;;;;;5001607;28;20064;-62
2022/01/13 10:09:10;;;;;;;26.98;12.77;;;1.90;9.10;;;;;;5004283;28;20072;-63
2022/01/13 10:11:41;;;;;;;23.30;13.18;;;1.90;7.60;;;;;;5005953;28;20133;-63
2022/01/13 10:14:18;;;;;;;22.33;11.90;;;1.80;8.30;;;;;;5003985;28;20052;-63
2022/01/13 10:16:48;;;;;;;30.92;14.10;;;1.90;7.00;;;;;;5001336;28;20057;-64
2022/01/13 10:19:27;;;;;;;19.42;12.57;;;1.80;6.50;;;;;;5004634;28;20050;-62
2022/01/13 10:21:57;;;;;;;30.08;14.88;;;1.70;6.90;;;;;;5003778;28;20108;-64
2022/01/13 10:24:27;;;;;;;26.83;14.57;;;1.70;6.90;;;;;;5004576;28;20143;-63
2022/01/13 10:27:07;;;;;;;26.67;15.02;;;1.70;5.70;;;;;;5002244;28;20080;-64
2022/01/13 10:29:47;;;;;;;26.85;14.57;;;1.90;5.90;;;;;;5001725;28;20141;-65
2022/01/13 10:32:18;;;;;;;23.80;13.82;;;2.10;5.30;;;;;;5005813;28;20057;-63
2022/01/13 10:34:47;;;;;;;33.10;16.25;;;2.00;4.60;;;;;;5003806;28;20053;-63
2022/01/13 10:37:18;;;;;;;27.08;13.75;;;1.90;4.40;;;;;;5002392;28;20486;-63
2022/01/13 10:40:03;;;;;;;25.60;14.30;;;2.00;4.40;;;;;;5003844;28;20045;-64
2022/01/13 10:45:35;;;;;;;25.80;14.98;;;2.00;4.00;;;;;;5001315;28;20549;-64
2022/01/13 10:48:06;;;;;;;26.08;13.30;;;2.10;3.80;;;;;;5002508;28;20077;-64
2022/01/13 10:50:37;;;;;;;27.88;14.73;;;2.00;3.90;;;;;;5004115;28;20049;-63
2022/01/13 10:53:07;;;;;;;25.65;14.70;;;2.00;4.40;;;;;;5005249;28;20056;-63
2022/01/13 10:55:39;;;;;;;23.15;14.43;;;1.90;4.10;;;;;;5001060;28;20052;-63
2022/01/13 10:58:11;;;;;;;23.10;13.35;;;2.10;3.90;;;;;;5003465;28;20053;-63
2022/01/13 11:00:42;;;;;;;25.58;14.85;;;2.20;4.40;;;;;;5003091;28;20045;-64
2022/01/13 11:03:14;;;;;;;25.85;13.98;;;2.30;3.60;;;;;;5005136;28;20057;-65
2022/01/13 11:05:46;;;;;;;24.23;14.27;;;2.30;3.60;;;;;;5002387;28;20050;-63
2022/01/13 11:08:24;;;;;;;27.25;14.27;;;2.40;3.50;;;;;;5003329;28;20053;-64
2022/01/13 11:10:56;;;;;;;30.52;16.30;;;2.60;3.00;;;;;;5002275;28;20050;-63
2022/01/13 11:13:27;;;;;;;23.25;13.90;;;2.70;2.50;;;;;;5009607;28;20054;-64
2022/01/13 11:15:56;;;;;;;24.67;14.55;;;2.50;2.50;;;;;;5005993;28;20065;-63
2022/01/13 11:18:26;;;;;;;23.65;13.30;;;2.50;2.30;;;;;;5005499;28;20049;-64
2022/01/13 11:21:08;;;;;;;21.42;13.75;;;2.60;2.50;;;;;;5004428;28;20049;-64
2022/01/13 11:23:38;;;;;;;21.33;13.63;;;2.70;2.00;;;;;;5007550;28;20050;-64
2022/01/13 11:26:07;;;;;;;22.55;12.40;;;2.60;2.20;;;;;;5005820;28;20073;-64
2022/01/13 11:28:40;;;;;;;19.17;12.23;;;2.70;1.90;;;;;;5006644;28;20517;-65
2022/01/13 11:31:12;;;;;;;22.73;13.45;;;2.80;1.80;;;;;;5021140;28;20041;-62
2022/01/13 11:33:40;;;;;;;19.58;12.70;;;2.90;1.60;;;;;;5008005;28;20107;-63
2022/01/13 11:36:12;;;;;;;18.42;12.05;;;2.80;1.00;;;;;;5004308;28;20100;-64
2022/01/13 11:38:59;;;;;;;25.48;14.18;;;2.70;1.50;;;;;;5004755;28;20054;-63
2022/01/13 11:41:29;;;;;;;26.63;13.38;;;2.80;1.80;;;;;;5008153;28;20037;-64
2022/01/13 11:44:13;;;;;;;22.92;14.38;;;2.80;1.00;;;;;;4985940;28;20058;-63
2022/01/13 11:46:47;;;;;;;20.35;12.25;;;3.00;1.10;;;;;;5003838;28;20057;-63
2022/01/13 11:49:21;;;;;;;24.13;13.43;;;2.90;1.20;;;;;;5007549;28;20077;-64
2022/01/13 11:51:57;;;;;;;19.70;12.63;;;2.80;1.70;;;;;;5006529;28;20058;-64
2022/01/13 11:54:30;;;;;;;21.52;12.30;;;2.80;2.20;;;;;;5003163;28;20100;-63
2022/01/13 11:57:21;;;;;;;22.63;11.95;;;2.70;2.60;;;;;;5004242;28;20038;-63
2022/01/13 12:00:23;;;;;;;20.83;11.77;;;2.80;2.10;;;;;;5006256;28;20053;-63
2022/01/13 12:02:55;;;;;;;18.60;11.13;;;2.90;1.90;;;;;;5003710;28;20054;-64
2022/01/13 12:05:25;;;;;;;20.05;11.23;;;2.80;2.20;;;;;;5006173;28;20049;-64
2022/01/13 12:07:55;;;;;;;19.33;11.55;;;2.90;1.90;;;;;;5004741;28;20140;-64
2022/01/13 12:10:49;;;;;;;21.00;11.60;;;2.90;2.40;;;;;;5005148;28;20046;-64
2022/01/13 12:13:44;;;;;;;19.77;12.23;;;3.00;2.30;;;;;;5006294;28;20497;-63
2022/01/13 12:16:14;;;;;;;19.58;11.05;;;3.10;2.20;;;;;;5004254;28;20612;-65
2022/01/13 12:19:04;;;;;;;19.35;10.77;;;3.10;2.00;;;;;;5004189;28;20066;-64
2022/01/13 12:21:36;;;;;;;20.27;11.13;;;3.10;2.80;;;;;;5007344;28;20077;-64
2022/01/13 12:24:06;;;;;;;18.15;11.57;;;3.30;2.10;;;;;;5006482;28;20133;-63
2022/01/13 12:26:56;;;;;;;19.40;11.93;;;3.40;1.60;;;;;;5004860;28;20049;-63
2022/01/13 12:29:27;;;;;;;22.13;11.30;;;3.60;1.60;;;;;;5005766;28;20128;-63
2022/01/13 12:31:58;;;;;;;22.52;11.75;;;3.60;1.00;;;;;;5004783;28;20073;-64
2022/01/13 12:34:51;;;;;;;16.70;10.60;;;3.40;1.00;;;;;;5004941;28;20073;-64
2022/01/13 12:37:25;;;;;;;21.67;12.15;;;3.30;1.70;;;;;;5001355;28;20040;-64
2022/01/13 12:39:58;;;;;;;19.25;9.77;;;3.40;1.80;;;;;;5007200;28;20048;-64
2022/01/13 12:42:37;;;;;;;17.02;10.43;;;3.50;1.20;;;;;;5007316;28;20066;-64
2022/01/13 12:47:58;;;;;;;16.88;10.07;;;3.50;1.00;;;;;;5004931;28;20053;-64
2022/01/13 12:50:30;;;;;;;18.83;11.07;;;3.70;1.00;;;;;;5005838;28;20116;-64
2022/01/13 12:53:12;;;;;;;19.90;11.48;;;3.60;1.90;;;;;;4985093;28;20485;-64
2022/01/13 12:55:43;;;;;;;18.00;10.73;;;3.70;2.20;;;;;;4982987;28;20837;-64
2022/01/13 12:58:11;;;;;;;16.80;10.55;;;3.50;3.10;;;;;;4978499;28;20407;-63
2022/01/13 13:01:06;;;;;;;15.93;10.50;;;3.30;3.90;;;;;;4982128;28;20042;-64
2022/01/13 13:03:37;;;;;;;16.45;9.82;;;3.40;4.20;;;;;;4985228;28;20046;-63
2022/01/13 13:06:12;;;;;;;18.42;10.80;;;3.40;3.70;;;;;;4980301;28;20053;-65
2022/01/13 13:08:43;;;;;;;18.70;10.55;;;3.40;3.80;;;;;;4979805;28;20142;-64
2022/01/13 13:11:12;;;;;;;17.52;10.13;;;3.50;3.30;;;;;;4981147;28;20046;-64
2022/01/13 13:13:43;;;;;;;17.75;10.73;;;3.60;3.60;;;;;;5005901;28;20046;-65
2022/01/13 13:16:14;;;;;;;17.17;10.13;;;3.60;3.50;;;;;;4998633;28;20450;-64